sensor_id;sensor_type;location;lat;lon;timestamp;pressure;altitude;pressure_sealevel;temperature;humidity
20620;BME280;10469;42.720;23.252;2023-04-06T00:02:12;94679.16;;;0.07;100.00
20620;BME280;10469;42.720;23.252;2023-04-06T00:04:38;94673.19;;;0.13;100.00
20620;BME280;10469;42.720;23.252;2023-04-06T00:07:04;94679.97;;;0.31;100.00
20620;BME280;10469;42.720;23.252;2023-04-06T00:09:31;94679.13;;;0.30;100.00
20620;BME280;10469;42.720;23.252;2023-04-06T00:12:00;94673.41;;;0.27;100.00
20620;BME280;10469;42.720;23.252;2023-04-06T00:14:26;94641.91;;;0.10;100.00
20620;BME280;10469;42.720;23.252;2023-04-06T00:16:51;94663.63;;;0.12;100.00
20620;BME280;10469;42.720;23.252;2023-04-06T00:19:17;94644.53;;;0.10;100.00
20620;BME280;10469;42.720;23.252;2023-04-06T00:21:43;94660.00;;;0.13;100.00
20620;BME280;10469;42.720;23.252;2023-04-06T00:24:09;94648.34;;;0.08;100.00
20620;BME280;10469;42.720;23.252;2023-04-06T00:26:35;94645.34;;;0.11;100.00
20620;BME280;10469;42.720;23.252;2023-04-06T00:29:01;94640.56;;;0.14;100.00
20620;BME280;10469;42.720;23.252;2023-04-06T00:31:26;94657.41;;;0.28;100.00
20620;BME280;10469;42.720;23.252;2023-04-06T00:33:52;94633.53;;;0.21;100.00
20620;BME280;10469;42.720;23.252;2023-04-06T00:36:18;94652.88;;;0.37;100.00
20620;BME280;10469;42.720;23.252;2023-04-06T00:38:45;94645.22;;;0.42;100.00
20620;BME280;10469;42.720;23.252;2023-04-06T00:41:11;94618.63;;;0.14;100.00
20620;BME280;10469;42.720;23.252;2023-04-06T00:43:37;94612.91;;;0.25;100.00
20620;BME280;10469;42.720;23.252;2023-04-06T00:46:03;94638.00;;;0.21;100.00
20620;BME280;10469;42.720;23.252;2023-04-06T00:48:29;94632.50;;;0.31;100.00
20620;BME280;10469;42.720;23.252;2023-04-06T00:50:57;94624.19;;;0.19;100.00
20620;BME280;10469;42.720;23.252;2023-04-06T00:53:22;94636.28;;;0.28;100.00
20620;BME280;10469;42.720;23.252;2023-04-06T00:55:48;94634.22;;;0.38;100.00
20620;BME280;10469;42.720;23.252;2023-04-06T00:58:14;94608.03;;;0.22;100.00
20620;BME280;10469;42.720;23.252;2023-04-06T01:00:40;94619.47;;;0.29;100.00
20620;BME280;10469;42.720;23.252;2023-04-06T01:03:07;94628.78;;;0.40;100.00
20620;BME280;10469;42.720;23.252;2023-04-06T01:05:34;94621.94;;;0.31;100.00
20620;BME280;10469;42.720;23.252;2023-04-06T01:08:05;94631.53;;;0.09;100.00
20620;BME280;10469;42.720;23.252;2023-04-06T01:10:31;94630.47;;;-0.05;100.00
20620;BME280;10469;42.720;23.252;2023-04-06T01:12:56;94624.09;;;-0.11;100.00
20620;BME280;10469;42.720;23.252;2023-04-06T01:15:23;94614.78;;;0.02;100.00
20620;BME280;10469;42.720;23.252;2023-04-06T01:17:49;94611.41;;;-0.07;100.00
20620;BME280;10469;42.720;23.252;2023-04-06T01:20:15;94600.25;;;-0.17;100.00
20620;BME280;10469;42.720;23.252;2023-04-06T01:22:42;94621.97;;;0.08;100.00
20620;BME280;10469;42.720;23.252;2023-04-06T01:25:08;94617.22;;;0.03;100.00
20620;BME280;10469;42.720;23.252;2023-04-06T01:27:34;94623.13;;;0.28;100.00
20620;BME280;10469;42.720;23.252;2023-04-06T01:30:00;94620.88;;;0.40;100.00
20620;BME280;10469;42.720;23.252;2023-04-06T01:32:25;94627.28;;;0.22;100.00
20620;BME280;10469;42.720;23.252;2023-04-06T01:34:51;94610.53;;;0.01;100.00
20620;BME280;10469;42.720;23.252;2023-04-06T01:37:17;94620.06;;;0.02;100.00
20620;BME280;10469;42.720;23.252;2023-04-06T01:39:43;94599.16;;;0.00;100.00
20620;BME280;10469;42.720;23.252;2023-04-06T01:42:09;94598.84;;;-0.05;100.00
20620;BME280;10469;42.720;23.252;2023-04-06T01:44:35;94614.81;;;0.16;100.00
20620;BME280;10469;42.720;23.252;2023-04-06T01:47:01;94602.91;;;0.20;100.00
20620;BME280;10469;42.720;23.252;2023-04-06T01:49:27;94600.72;;;0.24;100.00
20620;BME280;10469;42.720;23.252;2023-04-06T01:51:52;94609.84;;;0.36;100.00
20620;BME280;10469;42.720;23.252;2023-04-06T01:54:19;94606.66;;;0.26;100.00
20620;BME280;10469;42.720;23.252;2023-04-06T01:56:45;94614.53;;;0.11;100.00
20620;BME280;10469;42.720;23.252;2023-04-06T01:59:11;94591.47;;;0.13;100.00
20620;BME280;10469;42.720;23.252;2023-04-06T02:01:37;94597.00;;;0.18;100.00
20620;BME280;10469;42.720;23.252;2023-04-06T02:04:02;94587.53;;;0.09;100.00
20620;BME280;10469;42.720;23.252;2023-04-06T02:06:28;94592.28;;;0.14;100.00
20620;BME280;10469;42.720;23.252;2023-04-06T02:08:54;94590.31;;;-0.07;100.00
20620;BME280;10469;42.720;23.252;2023-04-06T02:11:20;94594.31;;;-0.11;100.00
20620;BME280;10469;42.720;23.252;2023-04-06T02:13:46;94600.50;;;-0.04;100.00
20620;BME280;10469;42.720;23.252;2023-04-06T02:16:12;94602.81;;;0.14;100.00
20620;BME280;10469;42.720;23.252;2023-04-06T02:18:38;94582.63;;;0.06;100.00
20620;BME280;10469;42.720;23.252;2023-04-06T02:21:03;94584.53;;;0.12;100.00
20620;BME280;10469;42.720;23.252;2023-04-06T02:23:29;94580.53;;;0.16;100.00
20620;BME280;10469;42.720;23.252;2023-04-06T02:25:56;94590.91;;;0.33;100.00
20620;BME280;10469;42.720;23.252;2023-04-06T02:28:21;94588.22;;;0.41;100.00
20620;BME280;10469;42.720;23.252;2023-04-06T02:30:50;94597.41;;;0.45;100.00
20620;BME280;10469;42.720;23.252;2023-04-06T02:33:16;94593.47;;;0.56;100.00
20620;BME280;10469;42.720;23.252;2023-04-06T02:35:44;94597.31;;;0.53;100.00
20620;BME280;10469;42.720;23.252;2023-04-06T02:38:11;94579.75;;;0.45;100.00
20620;BME280;10469;42.720;23.252;2023-04-06T02:40:36;94604.75;;;0.64;100.00
20620;BME280;10469;42.720;23.252;2023-04-06T02:43:02;94601.84;;;0.59;100.00
20620;BME280;10469;42.720;23.252;2023-04-06T02:45:28;94592.22;;;0.66;100.00
20620;BME280;10469;42.720;23.252;2023-04-06T02:47:54;94603.22;;;0.55;100.00
20620;BME280;10469;42.720;23.252;2023-04-06T02:50:20;94609.75;;;0.59;100.00
20620;BME280;10469;42.720;23.252;2023-04-06T02:52:46;94587.66;;;0.60;100.00
20620;BME280;10469;42.720;23.252;2023-04-06T02:55:12;94594.03;;;0.51;100.00
20620;BME280;10469;42.720;23.252;2023-04-06T02:57:38;94573.63;;;0.60;100.00
20620;BME280;10469;42.720;23.252;2023-04-06T03:00:04;94602.84;;;0.73;100.00
20620;BME280;10469;42.720;23.252;2023-04-06T03:02:30;94589.09;;;0.78;100.00
20620;BME280;10469;42.720;23.252;2023-04-06T03:04:56;94590.00;;;0.85;100.00
20620;BME280;10469;42.720;23.252;2023-04-06T03:07:22;94588.56;;;0.82;100.00
20620;BME280;10469;42.720;23.252;2023-04-06T03:09:48;94589.75;;;0.80;100.00
20620;BME280;10469;42.720;23.252;2023-04-06T03:12:14;94596.84;;;0.64;100.00
20620;BME280;10469;42.720;23.252;2023-04-06T03:14:39;94599.56;;;0.56;100.00
20620;BME280;10469;42.720;23.252;2023-04-06T03:17:05;94595.31;;;0.40;100.00
20620;BME280;10469;42.720;23.252;2023-04-06T03:19:31;94600.03;;;0.45;100.00
20620;BME280;10469;42.720;23.252;2023-04-06T03:21:57;94594.41;;;0.48;100.00
20620;BME280;10469;42.720;23.252;2023-04-06T03:24:22;94603.13;;;0.48;100.00
20620;BME280;10469;42.720;23.252;2023-04-06T03:26:48;94587.00;;;0.29;100.00
20620;BME280;10469;42.720;23.252;2023-04-06T03:29:14;94589.19;;;0.25;100.00
20620;BME280;10469;42.720;23.252;2023-04-06T03:31:40;94597.28;;;0.23;100.00
20620;BME280;10469;42.720;23.252;2023-04-06T03:34:06;94591.13;;;0.46;100.00
20620;BME280;10469;42.720;23.252;2023-04-06T03:36:31;94590.19;;;0.39;100.00
20620;BME280;10469;42.720;23.252;2023-04-06T03:38:57;94583.63;;;0.20;100.00
20620;BME280;10469;42.720;23.252;2023-04-06T03:41:26;94585.59;;;0.03;100.00
20620;BME280;10469;42.720;23.252;2023-04-06T03:43:52;94594.19;;;0.20;100.00
20620;BME280;10469;42.720;23.252;2023-04-06T03:46:18;94602.69;;;0.07;100.00
20620;BME280;10469;42.720;23.252;2023-04-06T03:48:48;94602.81;;;0.14;100.00
20620;BME280;10469;42.720;23.252;2023-04-06T03:51:14;94584.72;;;0.11;100.00
20620;BME280;10469;42.720;23.252;2023-04-06T03:53:40;94575.44;;;0.00;100.00
20620;BME280;10469;42.720;23.252;2023-04-06T03:56:06;94587.84;;;-0.09;100.00
20620;BME280;10469;42.720;23.252;2023-04-06T03:58:32;94594.28;;;0.27;100.00
20620;BME280;10469;42.720;23.252;2023-04-06T04:00:58;94583.25;;;0.08;100.00
20620;BME280;10469;42.720;23.252;2023-04-06T04:03:24;94575.34;;;0.08;100.00
20620;BME280;10469;42.720;23.252;2023-04-06T04:05:52;94592.81;;;0.09;100.00
20620;BME280;10469;42.720;23.252;2023-04-06T04:08:18;94589.16;;;0.10;100.00
20620;BME280;10469;42.720;23.252;2023-04-06T04:11:04;94596.94;;;0.27;100.00
20620;BME280;10469;42.720;23.252;2023-04-06T04:13:30;94563.34;;;0.06;100.00
20620;BME280;10469;42.720;23.252;2023-04-06T04:15:56;94582.34;;;0.01;100.00
20620;BME280;10469;42.720;23.252;2023-04-06T04:18:22;94591.72;;;0.18;100.00
20620;BME280;10469;42.720;23.252;2023-04-06T04:20:52;94586.31;;;0.35;100.00
20620;BME280;10469;42.720;23.252;2023-04-06T04:23:18;94592.59;;;0.48;100.00
20620;BME280;10469;42.720;23.252;2023-04-06T04:25:44;94590.66;;;0.57;100.00
20620;BME280;10469;42.720;23.252;2023-04-06T04:28:10;94593.31;;;0.57;100.00
20620;BME280;10469;42.720;23.252;2023-04-06T04:30:35;94567.63;;;0.51;100.00
20620;BME280;10469;42.720;23.252;2023-04-06T04:33:01;94588.75;;;0.66;100.00
20620;BME280;10469;42.720;23.252;2023-04-06T04:35:27;94562.19;;;0.67;100.00
20620;BME280;10469;42.720;23.252;2023-04-06T04:37:53;94560.72;;;0.50;100.00
20620;BME280;10469;42.720;23.252;2023-04-06T04:40:19;94579.66;;;0.68;100.00
20620;BME280;10469;42.720;23.252;2023-04-06T04:42:44;94571.81;;;0.75;100.00
20620;BME280;10469;42.720;23.252;2023-04-06T04:45:10;94594.38;;;0.92;100.00
20620;BME280;10469;42.720;23.252;2023-04-06T04:47:36;94587.53;;;0.98;100.00
20620;BME280;10469;42.720;23.252;2023-04-06T04:50:07;94590.34;;;1.11;100.00
20620;BME280;10469;42.720;23.252;2023-04-06T04:52:33;94571.63;;;0.91;100.00
20620;BME280;10469;42.720;23.252;2023-04-06T04:54:58;94562.44;;;0.87;100.00
20620;BME280;10469;42.720;23.252;2023-04-06T04:57:25;94554.53;;;0.87;100.00
20620;BME280;10469;42.720;23.252;2023-04-06T04:59:54;94576.59;;;1.01;100.00
20620;BME280;10469;42.720;23.252;2023-04-06T05:02:20;94578.56;;;1.50;100.00
20620;BME280;10469;42.720;23.252;2023-04-06T05:04:45;94596.75;;;1.60;100.00
20620;BME280;10469;42.720;23.252;2023-04-06T05:07:11;94585.44;;;1.44;100.00
20620;BME280;10469;42.720;23.252;2023-04-06T05:09:37;94584.66;;;1.50;100.00
20620;BME280;10469;42.720;23.252;2023-04-06T05:12:03;94535.53;;;0.98;100.00
20620;BME280;10469;42.720;23.252;2023-04-06T05:14:29;94598.28;;;1.47;100.00
20620;BME280;10469;42.720;23.252;2023-04-06T05:16:56;94503.66;;;0.79;100.00
20620;BME280;10469;42.720;23.252;2023-04-06T05:19:22;94563.97;;;0.96;100.00
20620;BME280;10469;42.720;23.252;2023-04-06T05:21:49;94569.75;;;1.07;100.00
20620;BME280;10469;42.720;23.252;2023-04-06T05:24:15;94578.75;;;1.12;100.00
20620;BME280;10469;42.720;23.252;2023-04-06T05:26:40;94589.38;;;1.55;100.00
20620;BME280;10469;42.720;23.252;2023-04-06T05:29:07;94580.06;;;1.38;100.00
20620;BME280;10469;42.720;23.252;2023-04-06T05:31:33;94533.59;;;1.43;100.00
20620;BME280;10469;42.720;23.252;2023-04-06T05:33:59;94575.00;;;1.58;100.00
20620;BME280;10469;42.720;23.252;2023-04-06T05:36:25;94587.00;;;1.60;100.00
20620;BME280;10469;42.720;23.252;2023-04-06T05:38:51;94581.28;;;1.35;100.00
20620;BME280;10469;42.720;23.252;2023-04-06T05:41:18;94587.88;;;1.46;100.00
20620;BME280;10469;42.720;23.252;2023-04-06T05:43:44;94589.50;;;1.25;100.00
20620;BME280;10469;42.720;23.252;2023-04-06T05:46:10;94576.13;;;1.12;100.00
20620;BME280;10469;42.720;23.252;2023-04-06T05:48:37;94583.34;;;1.40;100.00
20620;BME280;10469;42.720;23.252;2023-04-06T05:51:03;94573.16;;;1.00;100.00
20620;BME280;10469;42.720;23.252;2023-04-06T05:53:31;94574.63;;;1.24;100.00
20620;BME280;10469;42.720;23.252;2023-04-06T05:56:00;94574.63;;;0.88;100.00
20620;BME280;10469;42.720;23.252;2023-04-06T05:58:26;94568.16;;;0.91;100.00
20620;BME280;10469;42.720;23.252;2023-04-06T06:00:57;94584.88;;;0.98;100.00
20620;BME280;10469;42.720;23.252;2023-04-06T06:03:24;94578.66;;;1.20;100.00
20620;BME280;10469;42.720;23.252;2023-04-06T06:05:50;94575.94;;;1.14;100.00
20620;BME280;10469;42.720;23.252;2023-04-06T06:08:17;94572.72;;;1.55;100.00
20620;BME280;10469;42.720;23.252;2023-04-06T06:10:43;94539.69;;;1.65;100.00
20620;BME280;10469;42.720;23.252;2023-04-06T06:13:09;94526.00;;;1.83;100.00
20620;BME280;10469;42.720;23.252;2023-04-06T06:15:35;94555.56;;;2.49;100.00
20620;BME280;10469;42.720;23.252;2023-04-06T06:18:01;94557.50;;;2.06;100.00
20620;BME280;10469;42.720;23.252;2023-04-06T06:20:27;94566.84;;;2.30;100.00
20620;BME280;10469;42.720;23.252;2023-04-06T06:22:55;94564.13;;;2.23;100.00
20620;BME280;10469;42.720;23.252;2023-04-06T06:25:21;94577.59;;;2.29;100.00
20620;BME280;10469;42.720;23.252;2023-04-06T06:27:47;94570.84;;;2.54;100.00
20620;BME280;10469;42.720;23.252;2023-04-06T06:30:13;94570.31;;;2.31;100.00
20620;BME280;10469;42.720;23.252;2023-04-06T06:32:38;94553.66;;;2.09;100.00
20620;BME280;10469;42.720;23.252;2023-04-06T06:35:04;94562.81;;;2.69;100.00
20620;BME280;10469;42.720;23.252;2023-04-06T06:37:30;94583.13;;;1.78;100.00
20620;BME280;10469;42.720;23.252;2023-04-06T06:39:56;94573.66;;;2.46;100.00
20620;BME280;10469;42.720;23.252;2023-04-06T06:42:22;94557.50;;;2.06;100.00
20620;BME280;10469;42.720;23.252;2023-04-06T06:44:49;94575.38;;;2.25;100.00
20620;BME280;10469;42.720;23.252;2023-04-06T06:47:15;94571.66;;;2.48;100.00
20620;BME280;10469;42.720;23.252;2023-04-06T06:49:41;94575.47;;;2.80;100.00
20620;BME280;10469;42.720;23.252;2023-04-06T06:52:08;94578.66;;;3.04;100.00
20620;BME280;10469;42.720;23.252;2023-04-06T06:54:35;94570.69;;;2.97;100.00
20620;BME280;10469;42.720;23.252;2023-04-06T06:57:20;94578.66;;;3.04;100.00
20620;BME280;10469;42.720;23.252;2023-04-06T06:59:47;94565.91;;;3.27;100.00
20620;BME280;10469;42.720;23.252;2023-04-06T07:02:15;94492.66;;;3.06;100.00
20620;BME280;10469;42.720;23.252;2023-04-06T08:22:12;94477.97;;;4.63;100.00
20620;BME280;10469;42.720;23.252;2023-04-06T08:24:38;94552.81;;;5.88;100.00
20620;BME280;10469;42.720;23.252;2023-04-06T08:27:03;94556.53;;;6.37;100.00
20620;BME280;10469;42.720;23.252;2023-04-06T08:29:30;94553.00;;;5.86;100.00
20620;BME280;10469;42.720;23.252;2023-04-06T08:31:56;94572.34;;;4.59;100.00
20620;BME280;10469;42.720;23.252;2023-04-06T08:34:22;94530.91;;;4.31;100.00
20620;BME280;10469;42.720;23.252;2023-04-06T08:36:51;94573.19;;;4.19;100.00
20620;BME280;10469;42.720;23.252;2023-04-06T08:39:17;94550.94;;;3.81;100.00
20620;BME280;10469;42.720;23.252;2023-04-06T08:41:51;94559.72;;;4.14;100.00
20620;BME280;10469;42.720;23.252;2023-04-06T08:44:18;94521.38;;;5.71;100.00
20620;BME280;10469;42.720;23.252;2023-04-06T08:46:47;94565.09;;;5.50;100.00
20620;BME280;10469;42.720;23.252;2023-04-06T08:49:14;94553.94;;;6.73;100.00
20620;BME280;10469;42.720;23.252;2023-04-06T08:51:41;94531.44;;;5.31;100.00
20620;BME280;10469;42.720;23.252;2023-04-06T08:54:08;94565.91;;;5.51;100.00
20620;BME280;10469;42.720;23.252;2023-04-06T08:56:37;94553.84;;;6.18;100.00
20620;BME280;10469;42.720;23.252;2023-04-06T08:59:04;94565.50;;;5.92;100.00
20620;BME280;10469;42.720;23.252;2023-04-06T09:01:33;94548.00;;;6.03;100.00
20620;BME280;10469;42.720;23.252;2023-04-06T09:04:03;94548.03;;;7.26;100.00
20620;BME280;10469;42.720;23.252;2023-04-06T09:06:32;94559.78;;;6.39;100.00
20620;BME280;10469;42.720;23.252;2023-04-06T09:08:58;94561.56;;;6.26;100.00
20620;BME280;10469;42.720;23.252;2023-04-06T09:11:24;94566.53;;;5.46;100.00
20620;BME280;10469;42.720;23.252;2023-04-06T09:13:52;94536.66;;;6.14;100.00
20620;BME280;10469;42.720;23.252;2023-04-06T09:16:18;94521.94;;;7.89;100.00
20620;BME280;10469;42.720;23.252;2023-04-06T09:18:45;94539.25;;;8.87;99.28
20620;BME280;10469;42.720;23.252;2023-04-06T09:21:11;94541.44;;;9.01;95.73
20620;BME280;10469;42.720;23.252;2023-04-06T09:23:37;94505.25;;;8.05;94.18
20620;BME280;10469;42.720;23.252;2023-04-06T09:26:21;94537.41;;;8.64;94.42
20620;BME280;10469;42.720;23.252;2023-04-06T09:28:49;94517.72;;;9.74;88.50
20620;BME280;10469;42.720;23.252;2023-04-06T09:31:21;94526.44;;;8.42;87.35
20620;BME280;10469;42.720;23.252;2023-04-06T09:33:48;94487.13;;;7.53;88.67
20620;BME280;10469;42.720;23.252;2023-04-06T09:36:14;94524.84;;;8.64;84.86
20620;BME280;10469;42.720;23.252;2023-04-06T09:39:02;94532.28;;;6.45;90.37
20620;BME280;10469;42.720;23.252;2023-04-06T09:41:37;94545.63;;;9.09;85.11
20620;BME280;10469;42.720;23.252;2023-04-06T09:44:10;94520.56;;;7.98;90.56
20620;BME280;10469;42.720;23.252;2023-04-06T09:46:41;94488.44;;;8.16;90.08
20620;BME280;10469;42.720;23.252;2023-04-06T09:49:10;94470.41;;;5.43;99.54
20620;BME280;10469;42.720;23.252;2023-04-06T09:51:53;94529.19;;;7.40;98.43
20620;BME280;10469;42.720;23.252;2023-04-06T09:54:40;94525.53;;;7.04;96.26
20620;BME280;10469;42.720;23.252;2023-04-06T09:57:27;94541.47;;;8.66;88.16
20620;BME280;10469;42.720;23.252;2023-04-06T10:00:05;94530.25;;;10.30;80.10
20620;BME280;10469;42.720;23.252;2023-04-06T11:04:56;94506.75;;;7.59;80.30
20620;BME280;10469;42.720;23.252;2023-04-06T11:07:26;94388.91;;;6.05;77.88
20620;BME280;10469;42.720;23.252;2023-04-06T11:09:52;94485.78;;;6.66;83.06
20620;BME280;10469;42.720;23.252;2023-04-06T11:12:26;94410.56;;;7.54;79.83
20620;BME280;10469;42.720;23.252;2023-04-06T11:14:57;94416.78;;;8.60;75.07
20620;BME280;10469;42.720;23.252;2023-04-06T11:17:35;94385.66;;;8.07;69.59
20620;BME280;10469;42.720;23.252;2023-04-06T11:20:03;94488.44;;;8.16;75.43
20620;BME280;10469;42.720;23.252;2023-04-06T11:22:31;94455.44;;;7.15;77.33
20620;BME280;10469;42.720;23.252;2023-04-06T11:25:07;94472.81;;;6.88;81.35
20620;BME280;10469;42.720;23.252;2023-04-06T11:27:36;94480.44;;;7.33;85.02
20620;BME280;10469;42.720;23.252;2023-04-06T11:30:04;94471.50;;;7.57;80.73
20620;BME280;10469;42.720;23.252;2023-04-06T11:32:39;94477.38;;;8.01;75.78
20620;BME280;10469;42.720;23.252;2023-04-06T11:35:06;94468.84;;;7.27;80.60
20620;BME280;10469;42.720;23.252;2023-04-06T11:37:33;94472.06;;;7.29;83.53
20620;BME280;10469;42.720;23.252;2023-04-06T11:40:00;94465.91;;;6.00;87.83
20620;BME280;10469;42.720;23.252;2023-04-06T11:42:29;94473.41;;;6.53;85.50
20620;BME280;10469;42.720;23.252;2023-04-06T11:44:56;94453.59;;;7.46;86.10
20620;BME280;10469;42.720;23.252;2023-04-06T11:49:55;94466.75;;;6.44;91.66
20620;BME280;10469;42.720;23.252;2023-04-06T11:52:26;94454.53;;;6.36;91.55
20620;BME280;10469;42.720;23.252;2023-04-06T11:54:53;94444.94;;;5.85;94.08
20620;BME280;10469;42.720;23.252;2023-04-06T11:57:21;94460.69;;;5.62;98.54
20620;BME280;10469;42.720;23.252;2023-04-06T11:59:51;94462.44;;;5.74;99.10
20620;BME280;10469;42.720;23.252;2023-04-06T12:02:17;94458.13;;;6.05;100.00
20620;BME280;10469;42.720;23.252;2023-04-06T12:04:45;94438.47;;;6.43;98.92
20620;BME280;10469;42.720;23.252;2023-04-06T12:07:11;94449.91;;;6.98;90.70
20620;BME280;10469;42.720;23.252;2023-04-06T12:09:37;94454.47;;;6.61;92.95
20620;BME280;10469;42.720;23.252;2023-04-06T12:12:03;94454.81;;;6.46;92.00
20620;BME280;10469;42.720;23.252;2023-04-06T12:14:29;94447.25;;;6.07;96.29
20620;BME280;10469;42.720;23.252;2023-04-06T12:16:57;94426.34;;;6.28;95.12
20620;BME280;10469;42.720;23.252;2023-04-06T12:19:23;94430.56;;;6.54;91.08
20620;BME280;10469;42.720;23.252;2023-04-06T12:21:52;94422.06;;;6.46;87.82
20620;BME280;10469;42.720;23.252;2023-04-06T12:24:18;94455.03;;;6.26;89.61
20620;BME280;10469;42.720;23.252;2023-04-06T12:26:46;94444.94;;;5.92;92.04
20620;BME280;10469;42.720;23.252;2023-04-06T12:29:12;94454.63;;;5.79;95.27
20620;BME280;10469;42.720;23.252;2023-04-06T12:31:39;94451.22;;;5.97;94.99
20620;BME280;10469;42.720;23.252;2023-04-06T12:34:06;94441.03;;;5.88;95.35
20620;BME280;10469;42.720;23.252;2023-04-06T12:36:32;94435.22;;;6.22;93.50
20620;BME280;10469;42.720;23.252;2023-04-06T12:38:58;94413.81;;;5.61;92.67
20620;BME280;10469;42.720;23.252;2023-04-06T12:41:25;94432.44;;;5.86;97.41
20620;BME280;10469;42.720;23.252;2023-04-06T12:43:51;94429.34;;;5.64;97.50
20620;BME280;10469;42.720;23.252;2023-04-06T12:46:17;94436.81;;;5.80;98.42
20620;BME280;10469;42.720;23.252;2023-04-06T12:48:43;94440.19;;;5.94;97.99
20620;BME280;10469;42.720;23.252;2023-04-06T12:51:09;94430.41;;;6.31;94.11
20620;BME280;10469;42.720;23.252;2023-04-06T12:53:35;94426.00;;;6.00;95.42
20620;BME280;10469;42.720;23.252;2023-04-06T12:56:02;94383.72;;;5.67;96.72
20620;BME280;10469;42.720;23.252;2023-04-06T12:58:28;94423.28;;;5.82;96.78
20620;BME280;10469;42.720;23.252;2023-04-06T13:00:55;94407.69;;;6.28;94.49
20620;BME280;10469;42.720;23.252;2023-04-06T13:03:23;94403.34;;;6.34;91.04
20620;BME280;10469;42.720;23.252;2023-04-06T13:05:52;94409.34;;;6.48;91.55
20620;BME280;10469;42.720;23.252;2023-04-06T13:08:19;94409.22;;;5.99;95.75
20620;BME280;10469;42.720;23.252;2023-04-06T13:10:49;94423.78;;;5.97;95.87
20620;BME280;10469;42.720;23.252;2023-04-06T13:13:17;94430.09;;;5.46;100.00
20620;BME280;10469;42.720;23.252;2023-04-06T13:15:44;94418.56;;;5.84;97.41
20620;BME280;10469;42.720;23.252;2023-04-06T13:18:10;94429.22;;;6.27;96.56
20620;BME280;10469;42.720;23.252;2023-04-06T13:20:36;94415.00;;;5.90;91.90
20620;BME280;10469;42.720;23.252;2023-04-06T13:23:03;94415.69;;;6.28;89.40
20620;BME280;10469;42.720;23.252;2023-04-06T13:25:29;94400.88;;;5.96;86.75
20620;BME280;10469;42.720;23.252;2023-04-06T13:27:55;94411.53;;;5.96;83.05
20620;BME280;10469;42.720;23.252;2023-04-06T13:30:22;94403.69;;;6.56;80.59
20620;BME280;10469;42.720;23.252;2023-04-06T13:32:48;94407.38;;;6.00;81.99
20620;BME280;10469;42.720;23.252;2023-04-06T13:35:14;94415.56;;;5.98;82.12
20620;BME280;10469;42.720;23.252;2023-04-06T13:37:40;94423.06;;;5.83;82.28
20620;BME280;10469;42.720;23.252;2023-04-06T13:40:08;94425.09;;;5.56;84.22
20620;BME280;10469;42.720;23.252;2023-04-06T13:42:34;94416.81;;;5.46;85.45
20620;BME280;10469;42.720;23.252;2023-04-06T13:45:06;94410.72;;;5.89;83.62
20620;BME280;10469;42.720;23.252;2023-04-06T13:47:32;94397.56;;;6.37;80.63
20620;BME280;10469;42.720;23.252;2023-04-06T13:49:58;94392.19;;;5.57;85.34
20620;BME280;10469;42.720;23.252;2023-04-06T13:52:24;94422.59;;;5.61;87.23
20620;BME280;10469;42.720;23.252;2023-04-06T13:54:50;94409.00;;;5.51;85.95
20620;BME280;10469;42.720;23.252;2023-04-06T13:57:16;94405.28;;;5.52;84.71
20620;BME280;10469;42.720;23.252;2023-04-06T13:59:43;94415.47;;;5.62;86.14
20620;BME280;10469;42.720;23.252;2023-04-06T14:02:10;94403.84;;;6.06;82.37
20620;BME280;10469;42.720;23.252;2023-04-06T14:04:36;94405.63;;;6.12;80.34
20620;BME280;10469;42.720;23.252;2023-04-06T14:07:03;94405.84;;;5.86;82.68
20620;BME280;10469;42.720;23.252;2023-04-06T14:09:29;94360.72;;;5.72;84.14
20620;BME280;10469;42.720;23.252;2023-04-06T14:11:55;94413.16;;;5.97;79.80
20620;BME280;10469;42.720;23.252;2023-04-06T14:14:24;94410.34;;;5.92;76.14
20620;BME280;10469;42.720;23.252;2023-04-06T14:16:50;94419.41;;;5.77;78.79
20620;BME280;10469;42.720;23.252;2023-04-06T14:19:16;94375.56;;;5.05;80.75
20620;BME280;10469;42.720;23.252;2023-04-06T14:21:46;94408.78;;;5.27;80.64
20620;BME280;10469;42.720;23.252;2023-04-06T14:24:13;94413.28;;;5.27;81.45
20620;BME280;10469;42.720;23.252;2023-04-06T14:26:40;94398.72;;;4.98;85.80
20620;BME280;10469;42.720;23.252;2023-04-06T14:29:09;94394.28;;;5.23;88.27
20620;BME280;10469;42.720;23.252;2023-04-06T14:31:35;94419.66;;;5.19;86.99
20620;BME280;10469;42.720;23.252;2023-04-06T14:34:02;94426.00;;;5.50;86.98
20620;BME280;10469;42.720;23.252;2023-04-06T14:36:29;94385.06;;;4.88;88.07
20620;BME280;10469;42.720;23.252;2023-04-06T14:39:02;94403.44;;;5.27;88.19
20620;BME280;10469;42.720;23.252;2023-04-06T14:41:29;94419.78;;;5.31;88.74
20620;BME280;10469;42.720;23.252;2023-04-06T14:43:56;94421.91;;;5.16;93.83
20620;BME280;10469;42.720;23.252;2023-04-06T14:46:22;94436.41;;;4.88;100.00
20620;BME280;10469;42.720;23.252;2023-04-06T14:48:48;94434.16;;;4.78;100.00
20620;BME280;10469;42.720;23.252;2023-04-06T14:51:13;94417.16;;;4.93;100.00
20620;BME280;10469;42.720;23.252;2023-04-06T14:53:39;94418.44;;;4.84;98.42
20620;BME280;10469;42.720;23.252;2023-04-06T14:56:05;94419.50;;;5.08;98.24
20620;BME280;10469;42.720;23.252;2023-04-06T14:58:32;94412.69;;;4.87;100.00
20620;BME280;10469;42.720;23.252;2023-04-06T15:00:59;94441.25;;;4.98;100.00
20620;BME280;10469;42.720;23.252;2023-04-06T15:03:26;94435.03;;;4.66;100.00
20620;BME280;10469;42.720;23.252;2023-04-06T15:05:52;94423.00;;;4.63;100.00
20620;BME280;10469;42.720;23.252;2023-04-06T15:08:18;94445.25;;;4.69;100.00
20620;BME280;10469;42.720;23.252;2023-04-06T15:10:48;94432.97;;;4.74;100.00
20620;BME280;10469;42.720;23.252;2023-04-06T15:13:14;94438.81;;;4.90;100.00
20620;BME280;10469;42.720;23.252;2023-04-06T15:15:44;94428.91;;;4.65;100.00